createdAt,value
2023-02-03T00:01:12.737Z,22.40
2023-02-03T00:03:40.185Z,21.80
2023-02-03T00:06:07.742Z,20.40
2023-02-03T00:08:36.672Z,22.80
2023-02-03T00:11:03.639Z,20.50
2023-02-03T00:13:30.831Z,20.20
2023-02-03T00:15:57.737Z,22.60
2023-02-03T00:18:24.556Z,23.10
2023-02-03T00:20:51.357Z,24.10
2023-02-03T00:23:18.235Z,21.80
2023-02-03T00:25:45.238Z,23.60
2023-02-03T00:28:12.165Z,21.20
2023-02-03T00:30:39.138Z,22.50
2023-02-03T00:33:08.191Z,17.20
2023-02-03T00:35:39.681Z,17.00
2023-02-03T00:38:08.778Z,19.40
2023-02-03T00:40:36.889Z,17.70
2023-02-03T00:43:05.798Z,20.70
2023-02-03T00:45:33.047Z,22.80
2023-02-03T00:48:04.114Z,19.00
2023-02-03T00:50:33.324Z,16.80
2023-02-03T00:53:02.665Z,15.80
2023-02-03T00:55:32.130Z,15.80
2023-02-03T00:57:58.977Z,15.40
2023-02-03T01:00:26.031Z,15.60
2023-02-03T01:02:53.087Z,14.50
2023-02-03T01:05:20.334Z,14.70
2023-02-03T01:07:47.142Z,13.40
2023-02-03T01:10:15.135Z,13.10
2023-02-03T01:12:41.767Z,14.40
2023-02-03T01:15:08.756Z,13.00
2023-02-03T01:17:35.637Z,14.30
2023-02-03T01:20:02.541Z,14.70
2023-02-03T01:22:30.604Z,13.80
2023-02-03T01:24:57.478Z,13.90
2023-02-03T01:27:27.177Z,14.10
2023-02-03T01:29:56.393Z,15.00
2023-02-03T01:32:24.367Z,15.80
2023-02-03T01:34:51.176Z,15.10
2023-02-03T01:37:18.582Z,15.40
2023-02-03T01:39:45.309Z,14.30
2023-02-03T01:42:14.276Z,13.70
2023-02-03T01:44:43.121Z,10.30
2023-02-03T01:47:21.211Z,10.50
2023-02-03T01:49:59.601Z,10.60
2023-02-03T01:52:27.576Z,10.20
2023-02-03T01:54:58.481Z,10.40
2023-02-03T01:57:42.098Z,10.80
2023-02-03T02:00:13.115Z,11.10
2023-02-03T02:02:49.518Z,12.50
2023-02-03T02:05:29.703Z,13.70
2023-02-03T02:07:59.630Z,15.30
2023-02-03T02:10:29.413Z,14.90
2023-02-03T02:13:04.404Z,14.80
2023-02-03T02:16:12.202Z,13.30
2023-02-03T02:19:03.960Z,11.80
2023-02-03T02:22:04.709Z,10.40
2023-02-03T02:24:56.970Z,9.20
2023-02-03T02:28:15.861Z,10.60
2023-02-03T02:31:02.184Z,13.10
2023-02-03T02:33:49.029Z,13.70
2023-02-03T02:36:42.801Z,13.60
2023-02-03T02:39:28.762Z,12.70
2023-02-03T02:42:14.959Z,7.30
2023-02-03T02:44:51.559Z,14.10
2023-02-03T02:47:20.778Z,15.30
2023-02-03T02:50:18.040Z,15.10
2023-02-03T02:52:47.826Z,13.60
2023-02-03T02:55:27.173Z,16.10
2023-02-03T02:58:00.871Z,15.60
2023-02-03T03:00:34.690Z,14.00
2023-02-03T03:03:15.697Z,15.60
2023-02-03T03:05:48.951Z,14.50
2023-02-03T03:08:22.066Z,15.30
2023-02-03T03:10:53.405Z,14.30
2023-02-03T03:13:30.151Z,14.60
2023-02-03T03:15:59.649Z,17.10
2023-02-03T03:18:35.717Z,18.90
2023-02-03T03:21:09.464Z,20.70
2023-02-03T03:23:44.161Z,27.50
2023-02-03T03:26:16.563Z,25.40
2023-02-03T03:28:51.636Z,26.20
2023-02-03T03:31:19.992Z,27.50
2023-02-03T03:33:50.434Z,27.30
2023-02-03T03:36:31.200Z,24.80
2023-02-03T03:39:10.187Z,19.90
2023-02-03T03:42:03.062Z,18.70
2023-02-03T03:45:11.279Z,18.80
2023-02-03T03:47:57.798Z,19.60
2023-02-03T03:50:36.698Z,18.60
2023-02-03T03:53:12.014Z,19.10
2023-02-03T03:55:59.428Z,20.00
2023-02-03T03:58:30.328Z,18.90
2023-02-03T04:01:09.009Z,17.40
2023-02-03T04:03:42.776Z,17.80
2023-02-03T04:06:11.232Z,17.30
2023-02-03T04:08:39.050Z,17.00
2023-02-03T04:11:06.428Z,16.40
2023-02-03T04:13:35.835Z,17.20
2023-02-03T04:16:02.813Z,16.00
2023-02-03T04:18:29.715Z,16.70
2023-02-03T04:20:56.550Z,15.90
2023-02-03T04:23:28.169Z,15.90
2023-02-03T04:25:54.978Z,16.10
2023-02-03T04:28:22.059Z,15.30
2023-02-03T04:30:51.360Z,15.50
2023-02-03T04:33:18.433Z,15.20
2023-02-03T04:35:46.994Z,13.90
2023-02-03T04:38:14.029Z,15.20
2023-02-03T04:40:42.092Z,13.20
2023-02-03T04:43:08.906Z,15.70
2023-02-03T04:45:35.683Z,15.90
2023-02-03T04:48:04.194Z,15.50
2023-02-03T04:50:32.180Z,17.60
2023-02-03T04:53:00.025Z,18.90
2023-02-03T04:55:28.280Z,20.10
2023-02-03T04:58:00.055Z,24.80
2023-02-03T05:00:29.066Z,15.20
2023-02-03T05:02:58.802Z,15.00
2023-02-03T05:05:29.087Z,15.90
2023-02-03T05:07:55.897Z,12.50
2023-02-03T05:10:22.883Z,12.20
2023-02-03T05:12:49.889Z,11.50
2023-02-03T05:15:19.776Z,13.20
2023-02-03T05:17:47.845Z,14.70
2023-02-03T05:20:17.840Z,13.30
2023-02-03T05:22:50.627Z,14.80
2023-02-03T05:25:20.153Z,14.60
2023-02-03T05:27:50.711Z,13.80
2023-02-03T05:30:26.180Z,14.80
2023-02-03T05:32:58.092Z,14.30
2023-02-03T05:35:28.785Z,15.90
2023-02-03T05:37:59.395Z,18.90
2023-02-03T05:40:54.159Z,16.50
2023-02-03T05:43:26.844Z,14.80
2023-02-03T05:46:04.071Z,15.50
2023-02-03T05:48:33.898Z,16.80
2023-02-03T05:51:01.144Z,16.60
2023-02-03T05:53:28.169Z,16.70
2023-02-03T05:55:55.034Z,15.40
2023-02-03T05:58:24.384Z,15.60
2023-02-03T06:00:51.753Z,16.30
2023-02-03T06:03:18.585Z,16.30
2023-02-03T06:05:45.603Z,20.30
2023-02-03T06:08:12.476Z,19.50
2023-02-03T06:10:39.436Z,16.40
2023-02-03T06:13:16.293Z,16.50
2023-02-03T06:15:43.692Z,17.30
2023-02-03T06:18:10.642Z,20.20
2023-02-03T06:20:37.601Z,20.00
2023-02-03T06:23:04.401Z,22.20
2023-02-03T06:25:32.283Z,26.00
2023-02-03T06:30:29.082Z,16.00
2023-02-03T06:32:56.372Z,12.00
2023-02-03T06:35:24.451Z,15.50
2023-02-03T06:37:52.404Z,14.60
2023-02-03T06:40:21.498Z,17.00
2023-02-03T06:42:50.675Z,16.80
2023-02-03T06:45:18.382Z,19.80
2023-02-03T06:47:45.599Z,19.00
2023-02-03T06:50:14.879Z,17.20
2023-02-03T06:52:41.991Z,14.90
2023-02-03T06:55:09.304Z,14.00
2023-02-03T06:57:43.255Z,16.50
2023-02-03T07:00:13.378Z,15.20
2023-02-03T07:02:42.025Z,13.80
2023-02-03T07:05:11.493Z,13.50
2023-02-03T07:07:39.042Z,14.30
2023-02-03T07:10:06.626Z,12.50
2023-02-03T07:12:35.902Z,13.60
2023-02-03T07:15:05.711Z,16.10
2023-02-03T07:17:32.888Z,16.70
2023-02-03T07:19:59.987Z,18.20
2023-02-03T07:22:27.132Z,17.20
2023-02-03T07:24:55.305Z,17.20
2023-02-03T07:27:22.436Z,15.50
2023-02-03T07:29:51.993Z,14.10
2023-02-03T07:32:21.368Z,15.50
2023-02-03T07:34:48.440Z,14.90
2023-02-03T07:37:17.996Z,13.70
2023-02-03T07:39:51.151Z,12.80
2023-02-03T07:42:21.416Z,13.30
2023-02-03T07:44:52.883Z,12.60
2023-02-03T07:47:21.474Z,12.60
2023-02-03T07:49:48.505Z,13.30
2023-02-03T07:52:21.696Z,12.60
2023-02-03T07:54:52.236Z,12.50
2023-02-03T07:57:19.497Z,12.60
2023-02-03T07:59:47.987Z,14.10
2023-02-03T08:02:18.928Z,12.80
2023-02-03T08:04:48.509Z,11.60
2023-02-03T08:07:19.976Z,12.60
2023-02-03T08:09:49.091Z,12.60
2023-02-03T08:12:16.284Z,11.80
2023-02-03T08:14:43.517Z,9.80
2023-02-03T08:17:16.729Z,9.50
2023-02-03T08:19:48.535Z,8.70
2023-02-03T08:22:18.617Z,8.90
2023-02-03T08:24:54.141Z,8.70
2023-02-03T08:27:26.559Z,7.70
2023-02-03T08:29:57.367Z,7.00
2023-02-03T08:32:28.705Z,6.50
2023-02-03T08:34:58.304Z,6.70
2023-02-03T08:37:31.279Z,7.00
2023-02-03T08:39:59.457Z,7.20
2023-02-03T08:42:28.245Z,7.00
2023-02-03T08:44:55.615Z,6.60
2023-02-03T08:47:22.683Z,6.30
2023-02-03T08:49:49.755Z,6.50
2023-02-03T08:52:36.799Z,7.50
2023-02-03T08:55:22.715Z,5.30
2023-02-03T08:58:15.463Z,5.10
2023-02-03T09:00:49.292Z,5.10
2023-02-03T09:03:16.477Z,4.10
2023-02-03T09:06:28.923Z,3.90
2023-02-03T09:08:58.517Z,4.80
2023-02-03T09:11:30.789Z,5.10
2023-02-03T09:14:00.437Z,6.80
2023-02-03T09:17:00.171Z,5.40
2023-02-03T09:19:36.888Z,5.90
2023-02-03T09:22:19.679Z,6.90
2023-02-03T09:25:02.955Z,6.30
2023-02-03T09:27:33.382Z,6.10
2023-02-03T09:30:08.610Z,6.10
2023-02-03T09:34:16.084Z,5.50
2023-02-03T09:36:32.131Z,7.30
2023-02-03T09:39:17.375Z,7.50
2023-02-03T09:42:29.079Z,7.10
2023-02-03T09:45:28.391Z,7.70
2023-02-03T09:48:38.579Z,6.90
2023-02-03T09:51:55.223Z,8.60
2023-02-03T09:55:26.893Z,10.30
2023-02-03T09:58:19.742Z,10.70
2023-02-03T10:01:06.836Z,9.30
2023-02-03T10:04:15.710Z,10.10
2023-02-03T10:10:42.294Z,9.80
2023-02-03T10:13:30.672Z,10.40
2023-02-03T10:16:28.439Z,10.00
2023-02-03T10:19:44.921Z,9.80
2023-02-03T10:22:22.795Z,8.70
2023-02-03T10:25:12.662Z,9.80
2023-02-03T10:27:58.016Z,9.40
2023-02-03T10:30:50.120Z,9.60
2023-02-03T10:34:04.575Z,8.60
2023-02-03T10:37:02.167Z,8.70
2023-02-03T10:40:24.406Z,8.30
2023-02-03T10:43:12.080Z,8.90
2023-02-03T10:46:10.465Z,8.50
2023-02-03T10:48:48.950Z,8.80
2023-02-03T10:51:42.880Z,7.90
2023-02-03T10:55:04.219Z,7.60
2023-02-03T10:57:41.062Z,7.50
2023-02-03T11:00:42.910Z,8.00
2023-02-03T11:03:40.857Z,8.10
2023-02-03T11:08:13.421Z,8.00
2023-02-03T11:09:54.002Z,6.50
2023-02-03T11:12:49.581Z,6.90
2023-02-03T11:15:26.824Z,6.00
2023-02-03T11:18:01.203Z,6.60
2023-02-03T11:20:38.166Z,6.70
2023-02-03T11:23:11.056Z,6.80
2023-02-03T11:25:46.173Z,6.20
2023-02-03T11:32:18.330Z,6.20
2023-02-03T11:35:04.518Z,7.10
2023-02-03T11:41:23.927Z,6.70
2023-02-03T11:44:21.913Z,6.70
2023-02-03T11:47:24.317Z,6.40
2023-02-03T11:51:09.403Z,6.60
2023-02-03T11:54:37.114Z,6.90
2023-02-03T11:58:05.454Z,6.10
2023-02-03T12:01:00.595Z,6.50
2023-02-03T12:07:02.836Z,6.30
2023-02-03T12:10:30.705Z,6.90
2023-02-03T12:17:31.612Z,5.90
2023-02-03T12:20:56.667Z,5.60
2023-02-03T12:27:50.298Z,5.60
2023-02-03T12:30:59.535Z,5.60
2023-02-03T12:33:52.894Z,5.40
2023-02-03T12:39:07.195Z,6.20
2023-02-03T12:41:41.662Z,5.10
2023-02-03T12:48:36.625Z,5.20
2023-02-03T12:51:17.061Z,4.80
2023-02-03T12:54:09.582Z,4.80
2023-02-03T12:57:10.742Z,5.00
2023-02-03T13:03:33.996Z,4.90
2023-02-03T13:07:17.124Z,4.80
2023-02-03T13:10:43.600Z,5.70
2023-02-03T13:18:18.264Z,5.30
2023-02-03T13:23:55.773Z,5.40
2023-02-03T13:27:20.523Z,6.00
2023-02-03T13:31:41.052Z,6.00
2023-02-03T13:39:07.166Z,4.70
2023-02-03T13:42:21.488Z,5.70
2023-02-03T13:46:41.301Z,5.10
2023-02-03T13:49:11.494Z,4.10
2023-02-03T13:52:25.710Z,2.80
2023-02-03T13:54:54.603Z,3.00
2023-02-03T13:58:19.561Z,2.60
2023-02-03T14:03:52.117Z,3.00
2023-02-03T14:06:43.908Z,2.80
2023-02-03T14:09:52.752Z,3.70
2023-02-03T14:13:20.153Z,3.20
2023-02-03T14:16:57.879Z,4.00
2023-02-03T14:20:23.312Z,3.40
2023-02-03T14:23:05.838Z,3.30
2023-02-03T14:25:57.971Z,2.90
2023-02-03T14:28:48.657Z,3.20
2023-02-03T14:31:31.832Z,3.50
2023-02-03T14:34:19.202Z,3.40
2023-02-03T14:37:31.419Z,3.20
2023-02-03T14:40:28.054Z,3.30
2023-02-03T14:44:03.679Z,3.50
2023-02-03T14:46:55.409Z,3.60
2023-02-03T14:49:49.362Z,3.70
2023-02-03T14:52:33.979Z,3.60
2023-02-03T14:55:34.208Z,3.60
2023-02-03T14:58:40.322Z,4.00
2023-02-03T15:02:04.930Z,4.30
2023-02-03T15:04:55.603Z,4.00
2023-02-03T15:08:06.810Z,4.00
2023-02-03T15:10:57.070Z,3.90
2023-02-03T15:13:34.381Z,4.40
2023-02-03T15:16:05.653Z,4.70
2023-02-03T15:18:45.190Z,4.70
2023-02-03T15:21:31.926Z,4.60
2023-02-03T15:24:49.919Z,4.80
2023-02-03T15:27:31.849Z,4.80
2023-02-03T15:30:21.285Z,4.30
2023-02-03T15:33:00.820Z,3.80
2023-02-03T15:35:34.703Z,4.60
2023-02-03T15:38:12.202Z,4.40
2023-02-03T15:40:47.290Z,5.10
2023-02-03T15:43:33.473Z,5.40
2023-02-03T15:46:24.887Z,5.60
2023-02-03T15:48:59.688Z,5.40
2023-02-03T15:51:49.568Z,5.60
2023-02-03T15:54:18.585Z,6.50
2023-02-03T15:56:55.875Z,6.00
2023-02-03T15:59:36.313Z,6.50
2023-02-03T16:02:28.115Z,7.10
2023-02-03T16:04:55.879Z,6.60
2023-02-03T16:07:30.285Z,6.00
2023-02-03T16:09:59.283Z,5.50
2023-02-03T16:12:25.905Z,5.10
2023-02-03T16:14:54.385Z,4.70
2023-02-03T16:17:23.158Z,4.90
2023-02-03T16:19:50.944Z,4.90
2023-02-03T16:22:32.175Z,5.00
2023-02-03T16:25:19.818Z,5.40
2023-02-03T16:28:18.597Z,5.30
2023-02-03T16:31:19.955Z,6.00
2023-02-03T16:34:07.260Z,6.20
2023-02-03T16:36:58.069Z,6.10
2023-02-03T16:39:45.407Z,5.70
2023-02-03T16:42:34.701Z,6.80
2023-02-03T16:45:21.043Z,5.60
2023-02-03T16:48:06.371Z,5.70
2023-02-03T16:50:50.684Z,7.20
2023-02-03T16:53:32.127Z,6.10
2023-02-03T16:56:03.875Z,7.20
2023-02-03T16:58:37.337Z,6.40
2023-02-03T17:01:05.521Z,6.00
2023-02-03T17:03:35.071Z,6.10
2023-02-03T17:06:05.535Z,5.60
2023-02-03T17:08:33.137Z,6.00
2023-02-03T17:11:05.997Z,5.70
2023-02-03T17:13:36.832Z,6.10
2023-02-03T17:16:13.649Z,5.70
2023-02-03T17:18:40.521Z,6.60
2023-02-03T17:21:10.390Z,5.80
2023-02-03T17:23:38.264Z,5.40
2023-02-03T17:26:05.121Z,5.90
2023-02-03T17:28:32.271Z,6.30
2023-02-03T17:31:01.751Z,6.40
2023-02-03T17:33:30.072Z,6.40
2023-02-03T17:36:01.419Z,7.10
2023-02-03T17:38:28.816Z,6.90
2023-02-03T17:54:58.362Z,5.60
2023-02-03T17:57:25.236Z,6.40
2023-02-03T17:59:56.187Z,5.40
2023-02-03T18:02:27.020Z,6.00
2023-02-03T18:04:56.679Z,6.30
2023-02-03T18:07:23.405Z,5.30
2023-02-03T18:09:50.267Z,4.90
2023-02-03T18:12:21.190Z,4.80
2023-02-03T18:14:48.867Z,3.50
2023-02-03T18:17:24.007Z,4.20
2023-02-03T18:19:55.858Z,3.90
2023-02-03T18:22:25.875Z,4.20
2023-02-03T18:25:01.793Z,4.40
2023-02-03T18:27:28.605Z,3.90
2023-02-03T18:29:58.219Z,4.40
2023-02-03T18:32:30.995Z,4.00
2023-02-03T18:35:00.916Z,4.30
2023-02-03T18:37:36.376Z,3.10
2023-02-03T18:40:03.382Z,3.70
2023-02-03T18:42:30.274Z,4.00
2023-02-03T18:44:58.135Z,3.70
2023-02-03T18:47:44.890Z,3.60
2023-02-03T18:50:25.001Z,3.30
2023-02-03T18:52:55.019Z,3.40
2023-02-03T18:56:07.838Z,3.40
2023-02-03T19:01:57.227Z,3.10
2023-02-03T19:06:46.997Z,3.50
2023-02-03T19:25:52.395Z,2.90
2023-02-03T19:29:02.969Z,2.70
2023-02-03T19:31:37.422Z,2.30
2023-02-03T19:34:36.192Z,2.20
2023-02-03T19:40:53.440Z,2.20
2023-02-03T19:43:39.553Z,2.20
2023-02-03T19:46:45.188Z,2.50
2023-02-03T19:51:24.569Z,1.60
2023-02-03T19:52:59.996Z,1.90
2023-02-03T19:55:33.019Z,2.10
2023-02-03T20:01:28.910Z,1.70
2023-02-03T20:09:04.781Z,2.30
2023-02-03T20:12:08.642Z,1.70
2023-02-03T20:18:34.934Z,1.80
2023-02-03T20:21:21.442Z,2.00
2023-02-03T20:21:33.630Z,1.60
2023-02-03T20:25:03.006Z,2.90
2023-02-03T20:27:54.219Z,2.30
2023-02-03T21:49:23.386Z,5.10
2023-02-03T21:51:58.341Z,6.20
2023-02-03T21:54:33.898Z,5.70
2023-02-03T21:57:04.720Z,7.40
2023-02-03T21:59:46.520Z,8.40
2023-02-03T22:03:10.987Z,8.00
2023-02-03T22:05:53.371Z,7.90
2023-02-03T22:08:34.081Z,7.70
2023-02-03T22:11:07.615Z,6.90
2023-02-03T22:21:54.449Z,7.40
2023-02-03T22:24:55.711Z,7.40
2023-02-03T22:27:36.684Z,9.40
2023-02-03T23:13:24.258Z,9.30
2023-02-03T23:15:30.919Z,8.10
2023-02-03T23:18:02.085Z,8.00
2023-02-03T23:20:29.491Z,8.30
2023-02-03T23:22:56.783Z,9.10
2023-02-03T23:25:23.949Z,9.70
2023-02-03T23:27:50.945Z,9.30
2023-02-03T23:30:18.385Z,9.70
2023-02-03T23:32:45.375Z,10.60
2023-02-03T23:35:31.270Z,11.10
2023-02-03T23:37:58.327Z,10.60
2023-02-03T23:40:25.068Z,12.00
2023-02-03T23:42:51.953Z,11.90
2023-02-03T23:45:18.797Z,12.70
2023-02-03T23:47:46.079Z,11.30
2023-02-03T23:50:15.970Z,11.70
2023-02-03T23:52:43.042Z,11.60
2023-02-03T23:55:16.237Z,11.00
2023-02-03T23:57:43.844Z,10.90
